LKLN

Details ICAO LKLN
Name Plzen - Line
Region Czech Republic
Timezone Europe/Prague (UTC+2.0)
Plans Departing 19
Arriving 28
Stats Elevation 1,187 ft / 362 m (AMSL)
Location 49.675230° 13.274484°
Runways 1
Magnetic Variation 3.644° E
Sunrise 2018-05-27 03:10:00 UTC / 2018-05-27 05:10:00 Local
Sunset 2018-05-27 19:00:59 UTC / 2018-05-27 21:00:59 Local
Advertisement - Login to hide

Runways

ID Width Length Bearing (true) Bearing (mag) Surface Threshold Offset Overrun Length
06 197 ft / 60 m 4,755 ft / 1,449 m 58.19° 54.55° Concrete 0 ft / 0 m 2,477 ft / 755 m
24 197 ft / 60 m 4,755 ft / 1,449 m 238.21° 234.57° Concrete 0 ft / 0 m 784 ft / 239 m

Map

Weather


0- 5 10 15 20 25 30 35+ Temperature / ° C

Clouds and Precipitation
Forecast for 2018-05-27 12:00 UTC. Updated an hour ago

Ground ~20,000 ft ~40,000 ft Winds

METAR

LKLN 271000Z AUTO 10008KT 040V140 9999 FEW044 25/13 Q1021

TAF

Not found

Frequencies

Tower 129.00 MHz INFO
Warning: Do not use this data for real-world aviation or navigation. No guarantee of current accuracy is given.